sensor_id;sensor_type;location;lat;lon;timestamp;P1;durP1;ratioP1;P2;durP2;ratioP2
45136;SDS011;30894;51.740;19.498;2022-12-18T00:01:31;17.98;;;7.32;;
45136;SDS011;30894;51.740;19.498;2022-12-18T00:04:02;17.27;;;6.55;;
45136;SDS011;30894;51.740;19.498;2022-12-18T00:06:32;8.57;;;4.72;;
45136;SDS011;30894;51.740;19.498;2022-12-18T00:08:59;18.50;;;7.57;;
45136;SDS011;30894;51.740;19.498;2022-12-18T00:11:31;18.65;;;6.95;;
45136;SDS011;30894;51.740;19.498;2022-12-18T00:14:04;11.40;;;5.30;;
45136;SDS011;30894;51.740;19.498;2022-12-18T00:16:31;30.25;;;7.18;;
45136;SDS011;30894;51.740;19.498;2022-12-18T00:18:58;15.55;;;6.30;;
45136;SDS011;30894;51.740;19.498;2022-12-18T00:21:27;16.48;;;5.82;;
45136;SDS011;30894;51.740;19.498;2022-12-18T00:23:54;9.88;;;4.70;;
45136;SDS011;30894;51.740;19.498;2022-12-18T00:26:24;14.98;;;5.00;;
45136;SDS011;30894;51.740;19.498;2022-12-18T00:28:59;13.20;;;5.32;;
45136;SDS011;30894;51.740;19.498;2022-12-18T00:31:32;15.63;;;5.93;;
45136;SDS011;30894;51.740;19.498;2022-12-18T00:33:58;15.10;;;5.53;;
45136;SDS011;30894;51.740;19.498;2022-12-18T00:36:27;16.85;;;5.55;;
45136;SDS011;30894;51.740;19.498;2022-12-18T00:39:01;15.20;;;6.47;;
45136;SDS011;30894;51.740;19.498;2022-12-18T00:41:29;16.65;;;6.35;;
45136;SDS011;30894;51.740;19.498;2022-12-18T00:44:15;24.60;;;7.63;;
45136;SDS011;30894;51.740;19.498;2022-12-18T00:46:44;19.50;;;5.90;;
45136;SDS011;30894;51.740;19.498;2022-12-18T00:49:11;9.95;;;4.22;;
45136;SDS011;30894;51.740;19.498;2022-12-18T00:51:41;12.70;;;5.43;;
45136;SDS011;30894;51.740;19.498;2022-12-18T00:54:07;16.50;;;6.65;;
45136;SDS011;30894;51.740;19.498;2022-12-18T00:56:36;9.27;;;5.05;;
45136;SDS011;30894;51.740;19.498;2022-12-18T00:59:03;11.98;;;5.60;;
45136;SDS011;30894;51.740;19.498;2022-12-18T01:01:32;15.48;;;5.15;;
45136;SDS011;30894;51.740;19.498;2022-12-18T01:04:00;15.18;;;6.15;;
45136;SDS011;30894;51.740;19.498;2022-12-18T01:06:28;14.35;;;5.78;;
45136;SDS011;30894;51.740;19.498;2022-12-18T01:08:55;13.43;;;5.70;;
45136;SDS011;30894;51.740;19.498;2022-12-18T01:11:22;9.20;;;3.95;;
45136;SDS011;30894;51.740;19.498;2022-12-18T01:13:48;15.15;;;5.45;;
45136;SDS011;30894;51.740;19.498;2022-12-18T01:16:15;23.83;;;7.03;;
45136;SDS011;30894;51.740;19.498;2022-12-18T01:18:43;9.63;;;5.00;;
45136;SDS011;30894;51.740;19.498;2022-12-18T01:21:10;13.85;;;6.93;;
45136;SDS011;30894;51.740;19.498;2022-12-18T01:23:40;10.77;;;3.85;;
45136;SDS011;30894;51.740;19.498;2022-12-18T01:26:13;16.50;;;7.13;;
45136;SDS011;30894;51.740;19.498;2022-12-18T01:28:41;11.00;;;4.70;;
45136;SDS011;30894;51.740;19.498;2022-12-18T01:31:10;16.35;;;5.38;;
45136;SDS011;30894;51.740;19.498;2022-12-18T01:33:43;21.65;;;5.18;;
45136;SDS011;30894;51.740;19.498;2022-12-18T01:36:20;14.95;;;5.13;;
45136;SDS011;30894;51.740;19.498;2022-12-18T01:38:53;7.43;;;4.13;;
45136;SDS011;30894;51.740;19.498;2022-12-18T01:41:24;21.05;;;6.95;;
45136;SDS011;30894;51.740;19.498;2022-12-18T01:50:15;13.50;;;5.85;;
45136;SDS011;30894;51.740;19.498;2022-12-18T01:52:51;16.75;;;5.38;;
45136;SDS011;30894;51.740;19.498;2022-12-18T01:55:29;10.55;;;5.13;;
45136;SDS011;30894;51.740;19.498;2022-12-18T01:58:01;16.95;;;5.93;;
45136;SDS011;30894;51.740;19.498;2022-12-18T02:00:28;24.58;;;6.10;;
45136;SDS011;30894;51.740;19.498;2022-12-18T02:02:54;21.05;;;7.22;;
45136;SDS011;30894;51.740;19.498;2022-12-18T02:08:28;14.18;;;5.95;;
45136;SDS011;30894;51.740;19.498;2022-12-18T02:17:01;20.73;;;6.82;;
45136;SDS011;30894;51.740;19.498;2022-12-18T02:22:26;16.17;;;6.70;;
45136;SDS011;30894;51.740;19.498;2022-12-18T02:25:12;15.05;;;6.53;;
45136;SDS011;30894;51.740;19.498;2022-12-18T02:27:49;17.85;;;7.47;;
45136;SDS011;30894;51.740;19.498;2022-12-18T02:30:19;23.55;;;7.50;;
45136;SDS011;30894;51.740;19.498;2022-12-18T02:32:47;16.60;;;5.05;;
45136;SDS011;30894;51.740;19.498;2022-12-18T02:35:20;13.75;;;6.07;;
45136;SDS011;30894;51.740;19.498;2022-12-18T02:37:51;16.23;;;6.18;;
45136;SDS011;30894;51.740;19.498;2022-12-18T02:40:23;11.35;;;4.85;;
45136;SDS011;30894;51.740;19.498;2022-12-18T02:42:53;19.05;;;7.32;;
45136;SDS011;30894;51.740;19.498;2022-12-18T02:45:28;22.10;;;6.65;;
45136;SDS011;30894;51.740;19.498;2022-12-18T02:47:54;15.88;;;6.18;;
45136;SDS011;30894;51.740;19.498;2022-12-18T02:51:08;16.40;;;6.70;;
45136;SDS011;30894;51.740;19.498;2022-12-18T02:53:31;11.73;;;5.40;;
45136;SDS011;30894;51.740;19.498;2022-12-18T02:56:14;13.98;;;4.70;;
45136;SDS011;30894;51.740;19.498;2022-12-18T03:01:49;18.33;;;6.97;;
45136;SDS011;30894;51.740;19.498;2022-12-18T03:04:22;15.93;;;6.00;;
45136;SDS011;30894;51.740;19.498;2022-12-18T03:06:54;13.63;;;6.40;;
45136;SDS011;30894;51.740;19.498;2022-12-18T03:09:25;16.25;;;7.22;;
45136;SDS011;30894;51.740;19.498;2022-12-18T03:15:08;6.75;;;4.28;;
45136;SDS011;30894;51.740;19.498;2022-12-18T03:17:44;22.15;;;7.68;;
45136;SDS011;30894;51.740;19.498;2022-12-18T03:20:19;17.63;;;7.13;;
45136;SDS011;30894;51.740;19.498;2022-12-18T03:22:52;15.75;;;6.57;;
45136;SDS011;30894;51.740;19.498;2022-12-18T03:25:25;14.80;;;6.13;;
45136;SDS011;30894;51.740;19.498;2022-12-18T03:27:54;17.10;;;6.75;;
45136;SDS011;30894;51.740;19.498;2022-12-18T03:30:24;13.73;;;6.68;;
45136;SDS011;30894;51.740;19.498;2022-12-18T03:32:53;17.42;;;6.90;;
45136;SDS011;30894;51.740;19.498;2022-12-18T03:35:35;12.38;;;5.60;;
45136;SDS011;30894;51.740;19.498;2022-12-18T03:38:07;21.50;;;6.40;;
45136;SDS011;30894;51.740;19.498;2022-12-18T03:43:39;18.88;;;7.20;;
45136;SDS011;30894;51.740;19.498;2022-12-18T03:46:41;20.40;;;7.55;;
45136;SDS011;30894;51.740;19.498;2022-12-18T03:49:33;13.30;;;5.80;;
45136;SDS011;30894;51.740;19.498;2022-12-18T03:54:49;18.58;;;6.22;;
45136;SDS011;30894;51.740;19.498;2022-12-18T03:57:19;18.33;;;6.20;;
45136;SDS011;30894;51.740;19.498;2022-12-18T03:59:56;22.13;;;8.30;;
45136;SDS011;30894;51.740;19.498;2022-12-18T04:02:30;14.43;;;6.47;;
45136;SDS011;30894;51.740;19.498;2022-12-18T04:05:03;13.48;;;6.57;;
45136;SDS011;30894;51.740;19.498;2022-12-18T04:07:32;11.07;;;4.30;;
45136;SDS011;30894;51.740;19.498;2022-12-18T04:10:02;10.45;;;5.20;;
45136;SDS011;30894;51.740;19.498;2022-12-18T04:12:31;9.77;;;5.00;;
45136;SDS011;30894;51.740;19.498;2022-12-18T04:14:57;7.80;;;4.55;;
45136;SDS011;30894;51.740;19.498;2022-12-18T04:17:25;13.35;;;4.95;;
45136;SDS011;30894;51.740;19.498;2022-12-18T04:19:55;6.38;;;4.03;;
45136;SDS011;30894;51.740;19.498;2022-12-18T04:22:21;15.68;;;6.15;;
45136;SDS011;30894;51.740;19.498;2022-12-18T04:24:47;16.52;;;6.45;;
45136;SDS011;30894;51.740;19.498;2022-12-18T04:27:19;17.13;;;7.40;;
45136;SDS011;30894;51.740;19.498;2022-12-18T04:29:46;19.95;;;6.03;;
45136;SDS011;30894;51.740;19.498;2022-12-18T04:32:12;15.98;;;6.03;;
45136;SDS011;30894;51.740;19.498;2022-12-18T04:34:39;15.45;;;5.70;;
45136;SDS011;30894;51.740;19.498;2022-12-18T04:37:09;12.80;;;5.18;;
45136;SDS011;30894;51.740;19.498;2022-12-18T04:39:36;14.60;;;5.32;;
45136;SDS011;30894;51.740;19.498;2022-12-18T04:42:02;22.45;;;8.65;;
45136;SDS011;30894;51.740;19.498;2022-12-18T04:44:29;16.20;;;6.22;;
45136;SDS011;30894;51.740;19.498;2022-12-18T04:46:58;22.63;;;7.53;;
45136;SDS011;30894;51.740;19.498;2022-12-18T04:49:33;14.30;;;7.20;;
45136;SDS011;30894;51.740;19.498;2022-12-18T04:52:00;13.35;;;4.85;;
45136;SDS011;30894;51.740;19.498;2022-12-18T04:54:35;17.33;;;6.20;;
45136;SDS011;30894;51.740;19.498;2022-12-18T04:57:01;13.27;;;7.22;;
45136;SDS011;30894;51.740;19.498;2022-12-18T04:59:28;10.80;;;4.30;;
45136;SDS011;30894;51.740;19.498;2022-12-18T05:01:54;9.38;;;4.35;;
45136;SDS011;30894;51.740;19.498;2022-12-18T05:04:22;16.27;;;6.70;;
45136;SDS011;30894;51.740;19.498;2022-12-18T05:06:49;14.05;;;6.18;;
45136;SDS011;30894;51.740;19.498;2022-12-18T05:09:17;24.35;;;8.70;;
45136;SDS011;30894;51.740;19.498;2022-12-18T05:11:44;18.15;;;7.95;;
45136;SDS011;30894;51.740;19.498;2022-12-18T05:14:10;24.23;;;7.90;;
45136;SDS011;30894;51.740;19.498;2022-12-18T05:16:36;21.15;;;8.15;;
45136;SDS011;30894;51.740;19.498;2022-12-18T05:19:04;16.10;;;7.05;;
45136;SDS011;30894;51.740;19.498;2022-12-18T05:21:31;27.00;;;9.38;;
45136;SDS011;30894;51.740;19.498;2022-12-18T05:24:00;17.65;;;5.93;;
45136;SDS011;30894;51.740;19.498;2022-12-18T05:26:26;23.27;;;8.32;;
45136;SDS011;30894;51.740;19.498;2022-12-18T05:28:55;12.52;;;5.10;;
45136;SDS011;30894;51.740;19.498;2022-12-18T05:31:21;13.68;;;5.25;;
45136;SDS011;30894;51.740;19.498;2022-12-18T05:33:48;29.08;;;9.15;;
45136;SDS011;30894;51.740;19.498;2022-12-18T05:36:14;25.63;;;9.05;;
45136;SDS011;30894;51.740;19.498;2022-12-18T05:38:45;22.73;;;10.65;;
45136;SDS011;30894;51.740;19.498;2022-12-18T05:41:11;18.98;;;7.60;;
45136;SDS011;30894;51.740;19.498;2022-12-18T05:43:38;28.20;;;7.97;;
45136;SDS011;30894;51.740;19.498;2022-12-18T05:46:08;20.60;;;8.98;;
45136;SDS011;30894;51.740;19.498;2022-12-18T05:48:42;29.27;;;7.90;;
45136;SDS011;30894;51.740;19.498;2022-12-18T05:51:09;24.42;;;8.90;;
45136;SDS011;30894;51.740;19.498;2022-12-18T05:53:40;15.98;;;6.78;;
45136;SDS011;30894;51.740;19.498;2022-12-18T05:56:08;21.00;;;6.93;;
45136;SDS011;30894;51.740;19.498;2022-12-18T05:58:41;19.85;;;7.53;;
45136;SDS011;30894;51.740;19.498;2022-12-18T06:01:09;20.98;;;6.55;;
45136;SDS011;30894;51.740;19.498;2022-12-18T06:03:43;13.43;;;5.88;;
45136;SDS011;30894;51.740;19.498;2022-12-18T06:06:20;21.00;;;8.23;;
45136;SDS011;30894;51.740;19.498;2022-12-18T06:08:50;20.10;;;7.63;;
45136;SDS011;30894;51.740;19.498;2022-12-18T06:11:18;18.95;;;7.93;;
45136;SDS011;30894;51.740;19.498;2022-12-18T06:13:51;25.13;;;7.22;;
45136;SDS011;30894;51.740;19.498;2022-12-18T06:16:19;16.52;;;6.32;;
45136;SDS011;30894;51.740;19.498;2022-12-18T06:18:46;12.70;;;7.07;;
45136;SDS011;30894;51.740;19.498;2022-12-18T06:21:12;16.15;;;7.32;;
45136;SDS011;30894;51.740;19.498;2022-12-18T06:23:40;15.93;;;7.85;;
45136;SDS011;30894;51.740;19.498;2022-12-18T06:26:12;21.05;;;8.98;;
45136;SDS011;30894;51.740;19.498;2022-12-18T06:28:39;23.00;;;8.88;;
45136;SDS011;30894;51.740;19.498;2022-12-18T06:31:06;24.60;;;7.70;;
45136;SDS011;30894;51.740;19.498;2022-12-18T06:33:33;16.10;;;7.88;;
45136;SDS011;30894;51.740;19.498;2022-12-18T06:36:01;20.08;;;8.27;;
45136;SDS011;30894;51.740;19.498;2022-12-18T06:38:33;10.48;;;5.43;;
45136;SDS011;30894;51.740;19.498;2022-12-18T06:41:22;15.25;;;6.00;;
45136;SDS011;30894;51.740;19.498;2022-12-18T06:43:48;22.08;;;8.25;;
45136;SDS011;30894;51.740;19.498;2022-12-18T06:46:14;10.60;;;6.03;;
45136;SDS011;30894;51.740;19.498;2022-12-18T06:48:41;18.38;;;6.35;;
45136;SDS011;30894;51.740;19.498;2022-12-18T06:51:07;13.75;;;6.63;;
45136;SDS011;30894;51.740;19.498;2022-12-18T06:53:34;18.27;;;7.10;;
45136;SDS011;30894;51.740;19.498;2022-12-18T06:56:03;24.40;;;8.30;;
45136;SDS011;30894;51.740;19.498;2022-12-18T06:58:32;19.67;;;8.15;;
45136;SDS011;30894;51.740;19.498;2022-12-18T07:00:59;19.77;;;6.78;;
45136;SDS011;30894;51.740;19.498;2022-12-18T07:03:28;12.38;;;4.43;;
45136;SDS011;30894;51.740;19.498;2022-12-18T07:05:55;14.68;;;6.78;;
45136;SDS011;30894;51.740;19.498;2022-12-18T07:08:24;9.93;;;5.82;;
45136;SDS011;30894;51.740;19.498;2022-12-18T07:10:50;13.07;;;5.95;;
45136;SDS011;30894;51.740;19.498;2022-12-18T07:13:17;25.75;;;7.90;;
45136;SDS011;30894;51.740;19.498;2022-12-18T07:15:44;21.13;;;7.78;;
45136;SDS011;30894;51.740;19.498;2022-12-18T07:18:11;13.25;;;5.50;;
45136;SDS011;30894;51.740;19.498;2022-12-18T07:20:38;7.18;;;3.28;;
45136;SDS011;30894;51.740;19.498;2022-12-18T07:23:04;14.68;;;5.28;;
45136;SDS011;30894;51.740;19.498;2022-12-18T07:25:37;25.17;;;7.45;;
45136;SDS011;30894;51.740;19.498;2022-12-18T07:28:04;26.88;;;7.28;;
45136;SDS011;30894;51.740;19.498;2022-12-18T07:30:32;27.50;;;8.55;;
45136;SDS011;30894;51.740;19.498;2022-12-18T07:32:58;15.82;;;6.90;;
45136;SDS011;30894;51.740;19.498;2022-12-18T07:35:24;24.33;;;10.27;;
45136;SDS011;30894;51.740;19.498;2022-12-18T07:37:51;17.13;;;5.72;;
45136;SDS011;30894;51.740;19.498;2022-12-18T07:40:17;24.60;;;7.43;;
45136;SDS011;30894;51.740;19.498;2022-12-18T07:42:44;22.15;;;7.97;;
45136;SDS011;30894;51.740;19.498;2022-12-18T07:45:10;17.77;;;6.07;;
45136;SDS011;30894;51.740;19.498;2022-12-18T07:47:37;17.83;;;6.75;;
45136;SDS011;30894;51.740;19.498;2022-12-18T07:50:03;28.15;;;7.97;;
45136;SDS011;30894;51.740;19.498;2022-12-18T07:52:30;16.60;;;7.13;;
45136;SDS011;30894;51.740;19.498;2022-12-18T07:54:56;12.30;;;5.00;;
45136;SDS011;30894;51.740;19.498;2022-12-18T07:57:23;13.10;;;5.07;;
45136;SDS011;30894;51.740;19.498;2022-12-18T07:59:49;16.50;;;6.38;;
45136;SDS011;30894;51.740;19.498;2022-12-18T08:02:15;13.75;;;5.88;;
45136;SDS011;30894;51.740;19.498;2022-12-18T08:04:41;19.15;;;8.68;;
45136;SDS011;30894;51.740;19.498;2022-12-18T08:07:07;8.70;;;4.53;;
45136;SDS011;30894;51.740;19.498;2022-12-18T08:09:33;4.32;;;1.58;;
45136;SDS011;30894;51.740;19.498;2022-12-18T08:11:59;11.98;;;5.00;;
45136;SDS011;30894;51.740;19.498;2022-12-18T08:14:25;14.27;;;4.60;;
45136;SDS011;30894;51.740;19.498;2022-12-18T08:16:51;16.73;;;5.10;;
45136;SDS011;30894;51.740;19.498;2022-12-18T08:19:17;10.40;;;4.55;;
45136;SDS011;30894;51.740;19.498;2022-12-18T08:21:44;13.10;;;6.03;;
45136;SDS011;30894;51.740;19.498;2022-12-18T08:24:10;8.32;;;4.32;;
45136;SDS011;30894;51.740;19.498;2022-12-18T08:26:37;18.23;;;7.35;;
45136;SDS011;30894;51.740;19.498;2022-12-18T08:29:05;8.43;;;4.25;;
45136;SDS011;30894;51.740;19.498;2022-12-18T08:31:31;15.30;;;6.43;;
45136;SDS011;30894;51.740;19.498;2022-12-18T08:33:58;10.45;;;5.53;;
45136;SDS011;30894;51.740;19.498;2022-12-18T08:36:24;13.93;;;5.30;;
45136;SDS011;30894;51.740;19.498;2022-12-18T08:38:51;15.90;;;6.25;;
45136;SDS011;30894;51.740;19.498;2022-12-18T08:41:19;15.07;;;5.97;;
45136;SDS011;30894;51.740;19.498;2022-12-18T08:43:45;16.98;;;5.60;;
45136;SDS011;30894;51.740;19.498;2022-12-18T08:46:32;11.40;;;5.28;;
45136;SDS011;30894;51.740;19.498;2022-12-18T08:49:01;4.65;;;1.67;;
45136;SDS011;30894;51.740;19.498;2022-12-18T08:51:29;17.42;;;7.30;;
45136;SDS011;30894;51.740;19.498;2022-12-18T08:53:55;11.10;;;4.88;;
45136;SDS011;30894;51.740;19.498;2022-12-18T08:56:21;16.63;;;6.75;;
45136;SDS011;30894;51.740;19.498;2022-12-18T08:58:47;16.70;;;6.85;;
45136;SDS011;30894;51.740;19.498;2022-12-18T09:01:17;5.82;;;2.03;;
45136;SDS011;30894;51.740;19.498;2022-12-18T09:03:42;20.23;;;6.78;;
45136;SDS011;30894;51.740;19.498;2022-12-18T09:06:09;16.90;;;5.07;;
45136;SDS011;30894;51.740;19.498;2022-12-18T09:08:39;14.38;;;4.78;;
45136;SDS011;30894;51.740;19.498;2022-12-18T09:11:09;10.23;;;4.10;;
45136;SDS011;30894;51.740;19.498;2022-12-18T09:13:45;11.45;;;4.50;;
45136;SDS011;30894;51.740;19.498;2022-12-18T09:16:11;5.93;;;3.05;;
45136;SDS011;30894;51.740;19.498;2022-12-18T09:18:37;12.95;;;5.78;;
45136;SDS011;30894;51.740;19.498;2022-12-18T09:21:18;11.50;;;6.13;;
45136;SDS011;30894;51.740;19.498;2022-12-18T09:23:50;18.08;;;6.00;;
45136;SDS011;30894;51.740;19.498;2022-12-18T09:26:21;5.50;;;2.97;;
45136;SDS011;30894;51.740;19.498;2022-12-18T09:28:48;13.25;;;4.05;;
45136;SDS011;30894;51.740;19.498;2022-12-18T09:31:17;15.20;;;5.68;;
45136;SDS011;30894;51.740;19.498;2022-12-18T09:33:45;5.75;;;2.25;;
45136;SDS011;30894;51.740;19.498;2022-12-18T09:36:12;6.05;;;2.58;;
45136;SDS011;30894;51.740;19.498;2022-12-18T09:38:40;21.55;;;6.82;;
45136;SDS011;30894;51.740;19.498;2022-12-18T09:41:17;29.05;;;8.85;;
45136;SDS011;30894;51.740;19.498;2022-12-18T09:44:29;23.83;;;7.13;;
45136;SDS011;30894;51.740;19.498;2022-12-18T09:47:22;8.80;;;3.47;;
45136;SDS011;30894;51.740;19.498;2022-12-18T09:50:27;17.60;;;7.22;;
45136;SDS011;30894;51.740;19.498;2022-12-18T09:53:12;18.02;;;7.70;;
45136;SDS011;30894;51.740;19.498;2022-12-18T09:55:50;13.10;;;4.75;;
45136;SDS011;30894;51.740;19.498;2022-12-18T09:58:39;17.27;;;7.43;;
45136;SDS011;30894;51.740;19.498;2022-12-18T10:01:18;4.07;;;1.65;;
45136;SDS011;30894;51.740;19.498;2022-12-18T10:03:48;15.60;;;5.60;;
45136;SDS011;30894;51.740;19.498;2022-12-18T10:17:51;5.57;;;2.33;;
45136;SDS011;30894;51.740;19.498;2022-12-18T10:20:46;0.80;;;0.70;;
45136;SDS011;30894;51.740;19.498;2022-12-18T10:23:19;8.50;;;3.63;;
45136;SDS011;30894;51.740;19.498;2022-12-18T10:26:07;2.33;;;1.67;;
45136;SDS011;30894;51.740;19.498;2022-12-18T10:28:36;7.18;;;2.30;;
45136;SDS011;30894;51.740;19.498;2022-12-18T10:31:14;5.47;;;2.42;;
45136;SDS011;30894;51.740;19.498;2022-12-18T10:33:46;4.55;;;1.75;;
45136;SDS011;30894;51.740;19.498;2022-12-18T10:36:13;14.25;;;5.75;;
45136;SDS011;30894;51.740;19.498;2022-12-18T10:38:42;15.93;;;6.28;;
45136;SDS011;30894;51.740;19.498;2022-12-18T10:46:48;22.70;;;9.32;;
45136;SDS011;30894;51.740;19.498;2022-12-18T10:49:27;23.80;;;8.55;;
45136;SDS011;30894;51.740;19.498;2022-12-18T10:52:14;17.38;;;7.18;;
45136;SDS011;30894;51.740;19.498;2022-12-18T10:54:49;12.05;;;4.13;;
45136;SDS011;30894;51.740;19.498;2022-12-18T11:02:54;4.55;;;2.75;;
45136;SDS011;30894;51.740;19.498;2022-12-18T11:07:57;9.35;;;3.70;;
45136;SDS011;30894;51.740;19.498;2022-12-18T11:10:26;1.58;;;1.27;;
45136;SDS011;30894;51.740;19.498;2022-12-18T11:13:14;12.90;;;3.97;;
45136;SDS011;30894;51.740;19.498;2022-12-18T11:15:47;4.18;;;1.90;;
45136;SDS011;30894;51.740;19.498;2022-12-18T11:18:30;5.10;;;1.98;;
45136;SDS011;30894;51.740;19.498;2022-12-18T11:21:09;8.63;;;3.08;;
45136;SDS011;30894;51.740;19.498;2022-12-18T11:23:46;7.85;;;3.42;;
45136;SDS011;30894;51.740;19.498;2022-12-18T11:26:21;11.80;;;3.25;;
45136;SDS011;30894;51.740;19.498;2022-12-18T11:29:09;0.70;;;0.70;;
45136;SDS011;30894;51.740;19.498;2022-12-18T11:31:42;8.18;;;3.47;;
45136;SDS011;30894;51.740;19.498;2022-12-18T11:36:55;11.65;;;4.35;;
45136;SDS011;30894;51.740;19.498;2022-12-18T11:39:30;16.50;;;5.97;;
45136;SDS011;30894;51.740;19.498;2022-12-18T11:42:27;17.23;;;6.95;;
45136;SDS011;30894;51.740;19.498;2022-12-18T11:45:15;12.82;;;5.63;;
45136;SDS011;30894;51.740;19.498;2022-12-18T11:48:22;1.83;;;0.80;;
45136;SDS011;30894;51.740;19.498;2022-12-18T11:50:56;10.27;;;4.95;;
45136;SDS011;30894;51.740;19.498;2022-12-18T11:53:25;15.23;;;6.30;;
45136;SDS011;30894;51.740;19.498;2022-12-18T11:58:43;3.60;;;1.95;;
45136;SDS011;30894;51.740;19.498;2022-12-18T12:05:05;11.55;;;3.90;;
45136;SDS011;30894;51.740;19.498;2022-12-18T12:07:50;16.13;;;7.13;;
45136;SDS011;30894;51.740;19.498;2022-12-18T12:10:54;6.80;;;3.38;;
45136;SDS011;30894;51.740;19.498;2022-12-18T12:19:44;17.33;;;5.30;;
45136;SDS011;30894;51.740;19.498;2022-12-18T12:25:37;1.85;;;0.85;;
45136;SDS011;30894;51.740;19.498;2022-12-18T12:28:36;1.42;;;1.25;;
45136;SDS011;30894;51.740;19.498;2022-12-18T12:40:29;1.05;;;0.90;;
45136;SDS011;30894;51.740;19.498;2022-12-18T12:43:12;5.55;;;2.25;;
45136;SDS011;30894;51.740;19.498;2022-12-18T12:46:06;1.70;;;1.27;;
45136;SDS011;30894;51.740;19.498;2022-12-18T12:51:19;5.90;;;3.63;;
45136;SDS011;30894;51.740;19.498;2022-12-18T12:54:40;1.23;;;0.95;;
45136;SDS011;30894;51.740;19.498;2022-12-18T12:57:09;4.40;;;1.50;;
45136;SDS011;30894;51.740;19.498;2022-12-18T12:59:44;0.55;;;0.47;;
45136;SDS011;30894;51.740;19.498;2022-12-18T13:08:12;3.15;;;1.45;;
45136;SDS011;30894;51.740;19.498;2022-12-18T13:10:51;3.45;;;1.98;;
45136;SDS011;30894;51.740;19.498;2022-12-18T13:13:48;11.57;;;4.38;;
45136;SDS011;30894;51.740;19.498;2022-12-18T13:16:22;8.75;;;4.20;;
45136;SDS011;30894;51.740;19.498;2022-12-18T13:23:55;4.65;;;1.08;;
45136;SDS011;30894;51.740;19.498;2022-12-18T13:28:53;2.92;;;1.33;;
45136;SDS011;30894;51.740;19.498;2022-12-18T13:36:49;1.15;;;0.93;;
45136;SDS011;30894;51.740;19.498;2022-12-18T13:41:44;1.23;;;1.10;;
45136;SDS011;30894;51.740;19.498;2022-12-18T13:47:31;14.63;;;5.28;;
45136;SDS011;30894;51.740;19.498;2022-12-18T13:49:58;8.25;;;3.33;;
45136;SDS011;30894;51.740;19.498;2022-12-18T13:52:28;3.00;;;2.38;;
45136;SDS011;30894;51.740;19.498;2022-12-18T13:55:00;15.57;;;4.95;;
45136;SDS011;30894;51.740;19.498;2022-12-18T13:57:32;3.00;;;2.28;;
45136;SDS011;30894;51.740;19.498;2022-12-18T14:02:54;0.85;;;0.50;;
45136;SDS011;30894;51.740;19.498;2022-12-18T14:05:26;1.98;;;0.80;;
45136;SDS011;30894;51.740;19.498;2022-12-18T14:08:03;2.95;;;1.63;;
45136;SDS011;30894;51.740;19.498;2022-12-18T14:10:34;1.75;;;0.15;;
45136;SDS011;30894;51.740;19.498;2022-12-18T14:13:10;0.65;;;0.65;;
45136;SDS011;30894;51.740;19.498;2022-12-18T14:15:46;2.25;;;1.20;;
45136;SDS011;30894;51.740;19.498;2022-12-18T14:18:24;0.00;;;0.00;;
45136;SDS011;30894;51.740;19.498;2022-12-18T14:21:00;0.65;;;0.50;;
45136;SDS011;30894;51.740;19.498;2022-12-18T14:23:40;1.65;;;1.33;;
45136;SDS011;30894;51.740;19.498;2022-12-18T14:26:26;6.13;;;3.28;;
45136;SDS011;30894;51.740;19.498;2022-12-18T14:28:56;3.25;;;2.65;;
45136;SDS011;30894;51.740;19.498;2022-12-18T14:31:24;2.72;;;1.48;;
45136;SDS011;30894;51.740;19.498;2022-12-18T14:33:54;1.45;;;1.02;;
45136;SDS011;30894;51.740;19.498;2022-12-18T14:36:21;2.10;;;1.23;;
45136;SDS011;30894;51.740;19.498;2022-12-18T14:38:51;1.77;;;1.50;;
45136;SDS011;30894;51.740;19.498;2022-12-18T14:41:23;1.33;;;0.85;;
45136;SDS011;30894;51.740;19.498;2022-12-18T14:43:53;0.75;;;0.75;;
45136;SDS011;30894;51.740;19.498;2022-12-18T14:46:34;5.45;;;3.20;;
45136;SDS011;30894;51.740;19.498;2022-12-18T14:49:18;1.80;;;0.93;;
45136;SDS011;30894;51.740;19.498;2022-12-18T14:52:00;2.70;;;1.95;;
45136;SDS011;30894;51.740;19.498;2022-12-18T14:54:31;2.90;;;2.15;;
45136;SDS011;30894;51.740;19.498;2022-12-18T14:57:13;3.10;;;0.80;;
45136;SDS011;30894;51.740;19.498;2022-12-18T14:59:55;2.45;;;0.90;;
45136;SDS011;30894;51.740;19.498;2022-12-18T15:02:31;3.10;;;1.42;;
45136;SDS011;30894;51.740;19.498;2022-12-18T15:07:47;3.67;;;1.98;;
45136;SDS011;30894;51.740;19.498;2022-12-18T15:13:05;3.70;;;2.53;;
45136;SDS011;30894;51.740;19.498;2022-12-18T15:26:14;3.63;;;2.38;;
45136;SDS011;30894;51.740;19.498;2022-12-18T15:28:53;4.28;;;2.13;;
45136;SDS011;30894;51.740;19.498;2022-12-18T15:31:31;1.13;;;1.00;;
45136;SDS011;30894;51.740;19.498;2022-12-18T15:36:33;1.42;;;0.98;;
45136;SDS011;30894;51.740;19.498;2022-12-18T15:39:03;0.77;;;0.70;;
45136;SDS011;30894;51.740;19.498;2022-12-18T15:41:34;3.42;;;1.63;;
45136;SDS011;30894;51.740;19.498;2022-12-18T15:44:01;3.67;;;1.98;;
45136;SDS011;30894;51.740;19.498;2022-12-18T15:46:29;5.03;;;2.90;;
45136;SDS011;30894;51.740;19.498;2022-12-18T15:48:56;6.80;;;2.63;;
45136;SDS011;30894;51.740;19.498;2022-12-18T15:51:24;3.05;;;1.98;;
45136;SDS011;30894;51.740;19.498;2022-12-18T15:53:56;5.18;;;1.70;;
45136;SDS011;30894;51.740;19.498;2022-12-18T15:56:25;4.50;;;1.67;;
45136;SDS011;30894;51.740;19.498;2022-12-18T15:59:11;0.98;;;0.93;;
45136;SDS011;30894;51.740;19.498;2022-12-18T16:01:44;0.38;;;0.35;;
45136;SDS011;30894;51.740;19.498;2022-12-18T16:04:13;1.95;;;0.80;;
45136;SDS011;30894;51.740;19.498;2022-12-18T16:06:41;0.25;;;0.25;;
45136;SDS011;30894;51.740;19.498;2022-12-18T16:09:08;3.60;;;1.48;;
45136;SDS011;30894;51.740;19.498;2022-12-18T16:11:36;3.28;;;1.52;;
45136;SDS011;30894;51.740;19.498;2022-12-18T16:14:11;3.75;;;2.00;;
45136;SDS011;30894;51.740;19.498;2022-12-18T16:16:42;2.60;;;1.63;;
45136;SDS011;30894;51.740;19.498;2022-12-18T16:19:19;2.25;;;0.80;;
45136;SDS011;30894;51.740;19.498;2022-12-18T16:21:50;5.00;;;1.50;;
45136;SDS011;30894;51.740;19.498;2022-12-18T16:24:20;0.55;;;0.55;;
45136;SDS011;30894;51.740;19.498;2022-12-18T16:26:55;5.43;;;2.17;;
45136;SDS011;30894;51.740;19.498;2022-12-18T16:29:24;5.07;;;2.47;;
45136;SDS011;30894;51.740;19.498;2022-12-18T16:31:56;2.05;;;1.42;;
45136;SDS011;30894;51.740;19.498;2022-12-18T16:34:33;2.75;;;1.80;;
45136;SDS011;30894;51.740;19.498;2022-12-18T16:37:01;9.38;;;3.42;;
45136;SDS011;30894;51.740;19.498;2022-12-18T16:39:29;1.75;;;1.45;;
45136;SDS011;30894;51.740;19.498;2022-12-18T16:41:57;1.08;;;0.47;;
45136;SDS011;30894;51.740;19.498;2022-12-18T16:44:23;2.60;;;1.60;;
45136;SDS011;30894;51.740;19.498;2022-12-18T16:46:49;3.78;;;1.92;;
45136;SDS011;30894;51.740;19.498;2022-12-18T16:49:16;7.38;;;2.13;;
45136;SDS011;30894;51.740;19.498;2022-12-18T16:51:45;1.90;;;1.52;;
45136;SDS011;30894;51.740;19.498;2022-12-18T16:54:15;2.95;;;1.13;;
45136;SDS011;30894;51.740;19.498;2022-12-18T16:56:41;0.68;;;0.63;;
45136;SDS011;30894;51.740;19.498;2022-12-18T16:59:09;4.00;;;1.80;;
45136;SDS011;30894;51.740;19.498;2022-12-18T17:01:36;5.85;;;2.80;;
45136;SDS011;30894;51.740;19.498;2022-12-18T17:04:04;16.98;;;5.25;;
45136;SDS011;30894;51.740;19.498;2022-12-18T17:06:32;4.68;;;2.15;;